Time;durP1;ratioP1;P1;durP2;ratioP2;P2;SDS_P1;SDS_P2;PMS_P1;PMS_P2;Temp;Humidity;BMP_temperature;BMP_pressure;BME280_temperature;BME280_humidity;BME280_pressure;Samples;Min_cycle;Max_cycle;Signal;HPM_P1;HPM_P2
2021/11/10 00:03:07;;;;;;;204.73;12.48;;;;;;;0.56;67.18;100880.47;10381596;28;20057;-64
2021/11/10 00:08:09;;;;;;;99.78;9.52;;;;;;;0.60;67.78;100882.16;10382061;28;20067;-64
2021/11/10 00:13:17;;;;;;;39.00;8.32;;;;;;;0.69;67.56;100884.69;10380485;28;20061;-64
2021/11/10 00:18:19;;;;;;;105.47;9.15;;;;;;;0.72;67.47;100888.97;10384246;28;20080;-63
2021/11/10 00:23:21;;;;;;;176.27;10.63;;;;;;;0.68;67.29;100882.13;10388848;28;20068;-64
2021/11/10 00:28:23;;;;;;;231.43;12.25;;;;;;;0.65;67.54;100879.56;10387870;28;20051;-64
2021/11/10 00:33:25;;;;;;;200.88;11.23;;;;;;;0.52;68.13;100881.34;10388530;28;20555;-64
2021/11/10 00:38:27;;;;;;;190.15;11.55;;;;;;;0.59;67.73;100854.69;10389290;28;20049;-64
2021/11/10 00:43:29;;;;;;;81.28;7.18;;;;;;;0.67;68.00;100870.97;10388441;28;20049;-64
2021/11/10 00:48:31;;;;;;;152.85;10.07;;;;;;;0.67;67.78;100872.69;10385971;28;20497;-63
2021/11/10 00:53:33;;;;;;;161.73;10.55;;;;;;;0.63;67.78;100878.72;10387567;28;20144;-64
2021/11/10 00:58:34;;;;;;;163.05;10.43;;;;;;;0.66;67.63;100879.56;10387205;28;20049;-64
2021/11/10 01:03:36;;;;;;;231.13;12.35;;;;;;;0.62;67.59;100870.13;10387806;28;20387;-64
2021/11/10 01:08:38;;;;;;;52.55;6.60;;;;;;;0.64;67.82;100873.56;10387457;28;20042;-64
2021/11/10 01:13:40;;;;;;;121.80;8.27;;;;;;;0.67;67.81;100868.38;10387714;28;20053;-64
2021/11/10 01:18:41;;;;;;;172.32;10.30;;;;;;;0.70;67.69;100862.38;10387305;28;20534;-63
2021/11/10 01:23:43;;;;;;;225.02;11.52;;;;;;;0.55;67.54;100850.44;10386650;28;20089;-64
2021/11/10 01:28:45;;;;;;;328.92;14.55;;;;;;;0.52;67.85;100859.00;10385119;28;20046;-62
2021/11/10 01:33:47;;;;;;;269.85;13.02;;;;;;;0.55;67.87;100855.56;10385910;28;20088;-63
2021/11/10 01:38:48;;;;;;;303.02;14.18;;;;;;;0.51;67.88;100859.88;10384475;28;20049;-62
2021/11/10 01:43:50;;;;;;;296.27;13.10;;;;;;;0.43;68.06;100860.78;10385851;28;20049;-63
2021/11/10 01:48:52;;;;;;;132.10;9.32;;;;;;;0.43;68.02;100853.06;10385814;28;20410;-63
2021/11/10 01:53:54;;;;;;;564.30;24.48;;;;;;;0.26;67.52;100853.09;10385723;28;20143;-63
2021/11/10 01:58:55;;;;;;;201.00;11.82;;;;;;;0.20;68.17;100854.88;10385257;28;20076;-62
2021/11/10 02:04:00;;;;;;;322.13;14.05;;;;;;;0.29;68.10;100862.53;10383068;28;20573;-63
2021/11/10 02:09:03;;;;;;;148.07;10.55;;;;;;;0.33;68.12;100870.25;10385252;28;20045;-63
2021/11/10 02:14:06;;;;;;;75.70;9.10;;;;;;;0.28;68.26;100866.00;10384716;28;20351;-63
2021/11/10 02:19:08;;;;;;;183.50;11.40;;;;;;;0.27;68.33;100856.53;10384860;28;20504;-62
2021/11/10 02:24:09;;;;;;;29.42;8.07;;;;;;;0.31;68.20;100847.97;10384377;28;20079;-63
2021/11/10 02:29:16;;;;;;;259.40;13.68;;;;;;;0.29;68.10;100844.53;10383442;28;20354;-63
2021/11/10 02:34:18;;;;;;;148.05;12.38;;;;;;;0.23;67.93;100835.13;10383917;28;20053;-63
2021/11/10 02:39:22;;;;;;;97.75;9.27;;;;;;;0.24;67.94;100831.69;10383753;28;20057;-62
2021/11/10 02:44:24;;;;;;;200.90;10.85;;;;;;;0.19;68.06;100837.72;10381342;28;20218;-62
2021/11/10 02:49:26;;;;;;;226.98;11.95;;;;;;;0.18;68.26;100849.72;10383853;28;20657;-62
2021/11/10 02:54:30;;;;;;;226.45;12.02;;;;;;;0.22;67.99;100851.41;10383495;28;20079;-63
2021/11/10 02:59:33;;;;;;;100.85;9.18;;;;;;;0.23;68.19;100837.69;10382946;28;20605;-62
2021/11/10 03:04:44;;;;;;;183.32;11.63;;;;;;;0.22;68.08;100842.88;10388185;28;20057;-63
2021/11/10 03:09:47;;;;;;;309.80;15.25;;;;;;;0.10;67.98;100835.16;10389339;28;20050;-62
2021/11/10 03:14:49;;;;;;;395.45;16.10;;;;;;;0.06;68.33;100833.44;10389936;28;20064;-63
2021/11/10 03:19:50;;;;;;;350.95;14.57;;;;;;;0.01;67.91;100815.50;10389964;28;20189;-62
2021/11/10 03:24:52;;;;;;;272.50;12.73;;;;;;;-0.11;68.46;100814.66;10389103;28;20160;-63
2021/11/10 03:29:54;;;;;;;245.18;13.77;;;;;;;-0.14;68.43;100820.66;10388800;28;20144;-63
2021/11/10 03:34:56;;;;;;;166.32;11.85;;;;;;;-0.09;68.46;100813.81;10389116;28;20497;-62
2021/11/10 03:39:58;;;;;;;86.97;9.05;;;;;;;-0.01;68.45;100811.22;10387937;28;20052;-62
2021/11/10 03:45:00;;;;;;;209.07;11.70;;;;;;;-0.00;68.26;100800.03;10387800;28;20053;-63
2021/11/10 03:50:03;;;;;;;589.70;23.30;;;;;;;-0.12;68.05;100797.50;10387517;28;20056;-63
2021/11/10 03:55:06;;;;;;;496.92;19.23;;;;;;;-0.21;68.54;100802.69;10396250;28;20072;-63
2021/11/10 04:00:08;;;;;;;230.13;12.52;;;;;;;-0.11;68.45;100807.81;10396001;28;20474;-62
2021/11/10 04:05:09;;;;;;;285.35;16.88;;;;;;;-0.19;68.11;100795.84;10391916;28;20321;-63
2021/11/10 04:10:12;;;;;;;177.70;10.57;;;;;;;-0.36;68.39;100788.16;10391469;28;20053;-62
2021/11/10 04:15:14;;;;;;;138.20;10.18;;;;;;;-0.33;68.88;100803.56;10385501;28;20056;-63
2021/11/10 04:20:16;;;;;;;150.13;11.57;;;;;;;-0.27;68.99;100793.28;10389441;28;20134;-63
2021/11/10 04:25:18;;;;;;;66.90;9.88;;;;;;;-0.05;68.52;100804.34;10388081;28;20059;-63
2021/11/10 04:30:21;;;;;;;275.15;13.30;;;;;;;0.07;68.40;100794.03;10389024;28;20052;-62
2021/11/10 04:35:23;;;;;;;504.25;21.20;;;;;;;0.14;68.14;100786.28;10388555;28;20056;-63
2021/11/10 04:40:24;;;;;;;245.52;13.80;;;;;;;0.23;68.37;100791.41;10387354;28;20045;-63
2021/11/10 04:45:34;;;;;;;279.58;14.57;;;;;;;0.15;67.87;100782.00;10388459;28;20045;-63
2021/11/10 04:50:37;;;;;;;59.70;8.80;;;;;;;0.05;68.37;100777.75;10388144;28;20060;-62
2021/11/10 04:55:41;;;;;;;28.65;9.63;;;;;;;0.14;68.41;100775.13;10388042;28;20041;-63
2021/11/10 05:00:45;;;;;;;20.48;8.57;;;;;;;0.36;68.07;100771.63;10387766;28;20051;-62
2021/11/10 05:05:51;;;;;;;32.25;8.90;;;;;;;0.37;67.82;100774.19;10387386;28;20601;-63
2021/11/10 05:10:52;;;;;;;55.05;8.55;;;;;;;0.53;67.86;100774.94;10386104;28;20063;-62
2021/11/10 05:15:54;;;;;;;50.38;10.05;;;;;;;0.52;67.71;100768.94;10386702;28;20050;-63
2021/11/10 05:20:57;;;;;;;106.80;12.32;;;;;;;0.45;67.74;100772.41;10388068;28;20244;-62
2021/11/10 05:25:58;;;;;;;64.53;12.30;;;;;;;0.47;68.00;100754.38;10386712;28;20069;-63
2021/11/10 05:31:00;;;;;;;93.97;13.35;;;;;;;0.59;67.70;100754.31;10386093;28;20053;-62
2021/11/10 05:36:02;;;;;;;146.82;12.15;;;;;;;0.55;67.63;100747.47;10401261;28;20061;-63
2021/11/10 05:41:09;;;;;;;447.30;24.63;;;;;;;0.43;67.78;100750.13;10386007;28;20084;-62
2021/11/10 05:46:10;;;;;;;396.80;23.20;;;;;;;0.44;68.00;100759.56;10385795;28;20868;-62
2021/11/10 05:51:12;;;;;;;274.60;17.85;;;;;;;0.52;68.03;100762.94;10385661;28;20056;-62
2021/11/10 05:56:24;;;;;;;173.10;13.80;;;;;;;0.44;68.44;100782.72;10385795;28;20060;-63
2021/11/10 06:01:27;;;;;;;326.70;18.80;;;;;;;0.47;68.47;100780.13;10385387;28;20198;-62
2021/11/10 06:06:29;;;;;;;338.25;21.13;;;;;;;0.57;68.34;100774.06;10384220;28;20049;-63
2021/11/10 06:11:31;;;;;;;307.27;17.25;;;;;;;0.50;68.07;100785.28;10384482;28;20053;-63
2021/11/10 06:16:32;;;;;;;335.35;19.23;;;;;;;0.49;68.12;100781.84;10382560;28;20066;-63
2021/11/10 06:21:34;;;;;;;248.02;16.20;;;;;;;0.60;68.28;100791.22;10384188;28;20052;-63
2021/11/10 06:26:36;;;;;;;112.90;12.43;;;;;;;0.75;67.97;100806.56;10383628;28;20103;-64
2021/11/10 06:31:37;;;;;;;151.07;13.68;;;;;;;0.66;68.02;100807.47;10384132;28;20041;-64
2021/11/10 06:36:39;;;;;;;118.32;14.95;;;;;;;0.64;68.02;100813.50;10383900;28;20060;-63
2021/11/10 06:41:41;;;;;;;107.65;12.40;;;;;;;0.66;68.14;100801.47;10383068;28;20056;-64
2021/11/10 06:46:42;;;;;;;140.55;13.30;;;;;;;0.69;68.05;100812.59;10383499;28;20421;-63
2021/11/10 06:51:44;;;;;;;120.13;14.45;;;;;;;0.79;68.29;100809.09;10384463;28;20243;-64
2021/11/10 06:56:48;;;;;;;602.15;22.17;;;;;;;0.77;68.16;100821.13;10384684;28;20075;-63
2021/11/10 07:01:49;;;;;;;462.40;20.77;;;;;;;0.68;67.89;100818.63;10382953;28;20050;-64
2021/11/10 07:06:51;;;;;;;111.78;11.85;;;;;;;0.67;68.21;100829.75;10383152;28;20147;-64
2021/11/10 07:11:53;;;;;;;43.13;10.80;;;;;;;0.81;68.14;100827.13;10375745;28;20059;-63
2021/11/10 07:16:55;;;;;;;83.95;11.48;;;;;;;1.01;67.98;100823.56;10380337;28;20448;-63
2021/11/10 07:21:57;;;;;;;186.88;12.98;;;;;;;1.10;67.41;100818.34;10383498;28;20549;-64
2021/11/10 07:26:59;;;;;;;212.75;15.52;;;;;;;1.02;67.19;100824.41;10382618;28;20560;-63
2021/11/10 07:32:01;;;;;;;387.70;22.33;;;;;;;0.99;67.37;100822.69;10390879;28;20053;-63
2021/11/10 07:37:03;;;;;;;349.42;16.60;;;;;;;0.96;67.58;100825.31;10388637;28;20045;-64
2021/11/10 07:42:05;;;;;;;311.15;18.17;;;;;;;0.98;67.43;100828.72;10376950;28;20413;-64
2021/11/10 07:47:14;;;;;;;418.33;19.85;;;;;;;1.24;67.16;100824.25;10389971;28;20173;-64
2021/11/10 07:52:15;;;;;;;454.45;20.20;;;;;;;1.48;67.18;100822.34;10385675;28;20095;-64
2021/11/10 07:57:24;;;;;;;420.23;20.77;;;;;;;1.66;66.85;100829.91;10386351;28;20045;-64
2021/11/10 08:02:26;;;;;;;276.13;17.30;;;;;;;1.69;66.79;100827.28;10387120;28;20426;-64
2021/11/10 08:07:28;;;;;;;512.00;22.17;;;;;;;1.85;66.75;100829.69;10387642;28;20056;-64
2021/11/10 08:12:31;;;;;;;424.80;20.33;;;;;;;1.99;66.33;100847.63;10386132;28;20056;-64
2021/11/10 08:17:35;;;;;;;310.75;18.65;;;;;;;1.85;66.38;100850.34;10389570;28;20048;-64
2021/11/10 08:22:37;;;;;;;406.88;20.50;;;;;;;1.71;66.63;100851.31;10389544;28;20520;-64
2021/11/10 08:27:39;;;;;;;248.38;20.00;;;;;;;1.75;66.68;100840.97;10388215;28;20101;-64
2021/11/10 08:32:41;;;;;;;176.88;15.73;;;;;;;1.83;66.78;100825.41;10388255;28;20148;-64
2021/11/10 08:37:45;;;;;;;600.58;25.10;;;;;;;1.93;66.29;100829.63;10386398;28;20049;-64
2021/11/10 08:42:48;;;;;;;448.23;22.38;;;;;;;1.98;66.48;100836.44;10385099;28;20045;-64
2021/11/10 08:47:52;;;;;;;404.63;23.40;;;;;;;2.20;66.24;100831.91;10387530;28;20057;-65
2021/11/10 08:52:55;;;;;;;415.30;21.80;;;;;;;2.26;66.07;100838.69;10385324;28;20072;-63
2021/11/10 08:57:57;;;;;;;176.82;15.30;;;;;;;2.26;66.48;100851.59;10386961;28;20298;-65
2021/11/10 09:02:58;;;;;;;455.38;20.63;;;;;;;2.29;66.39;100854.16;10388011;28;20053;-62
2021/11/10 09:08:00;;;;;;;197.43;16.15;;;;;;;2.32;66.49;100857.56;10386264;28;20053;-62
2021/11/10 09:13:04;;;;;;;208.50;17.77;;;;;;;2.51;66.11;100842.72;10387253;28;20077;-62
2021/11/10 09:18:07;;;;;;;435.70;20.90;;;;;;;2.36;65.88;100851.50;10385366;28;20053;-63
2021/11/10 09:23:12;;;;;;;304.42;19.52;;;;;;;2.38;65.69;100854.09;10387141;28;20566;-68
2021/11/10 09:28:16;;;;;;;379.70;26.77;;;;;;;2.07;66.26;100854.41;10385377;28;20058;-70
2021/11/10 09:33:19;;;;;;;154.18;19.92;;;;;;;2.23;66.71;100842.19;10386046;28;20084;-71
2021/11/10 09:38:23;;;;;;;274.38;19.83;;;;;;;2.40;66.04;100827.34;10384244;28;20504;-71
2021/11/10 09:43:39;;;;;;;222.70;18.38;;;;;;;2.44;66.26;100851.44;10385840;28;20561;-70
2021/11/10 09:48:42;;;;;;;192.80;16.33;;;;;;;2.38;66.73;100854.91;10384073;28;20063;-71
2021/11/10 09:53:43;;;;;;;84.55;13.73;;;;;;;2.50;66.56;100847.00;10384611;28;20489;-71
2021/11/10 09:58:47;;;;;;;198.48;19.17;;;;;;;2.43;66.01;100849.69;10385474;28;20045;-71
2021/11/10 10:03:52;;;;;;;62.78;15.50;;;;;;;2.70;66.24;100854.53;10385463;28;20051;-69
2021/11/10 10:08:54;;;;;;;145.43;17.42;;;;;;;2.96;65.62;100842.97;10383538;28;20655;-70
2021/11/10 10:13:56;;;;;;;119.43;21.52;;;;;;;3.05;65.61;100840.22;10384421;28;20661;-70
2021/11/10 10:19:12;;;;;;;31.02;15.95;;;;;;;3.18;65.52;100824.53;10381526;28;20386;-71
2021/11/10 10:24:15;;;;;;;22.77;14.85;;;;;;;3.38;65.08;100822.47;10384737;28;20056;-68
2021/11/10 10:29:17;;;;;;;39.85;15.35;;;;;;;3.35;64.64;100820.81;10382338;28;20699;-70
2021/11/10 10:34:19;;;;;;;20.98;12.45;;;;;;;3.43;64.83;100824.13;10381587;28;20057;-68
2021/11/10 10:39:20;;;;;;;27.55;13.50;;;;;;;3.53;65.04;100801.56;10383671;28;20397;-70
2021/11/10 10:44:27;;;;;;;32.33;16.63;;;;;;;3.85;64.17;100819.97;10383537;28;20244;-71
2021/11/10 10:49:33;;;;;;;33.45;18.83;;;;;;;3.82;64.47;100823.41;10384083;28;20132;-71
2021/11/10 10:54:35;;;;;;;30.58;14.88;;;;;;;3.77;64.45;100807.16;10383702;28;20453;-70
2021/11/10 10:59:37;;;;;;;24.20;12.98;;;;;;;3.93;64.48;100799.97;10383599;28;20072;-70
2021/11/10 11:04:43;;;;;;;24.27;12.90;;;;;;;4.10;63.99;100803.09;10382695;28;20053;-70
2021/11/10 11:09:51;;;;;;;22.25;13.63;;;;;;;4.03;64.18;100796.31;10383841;28;20141;-72
2021/11/10 11:15:11;;;;;;;20.33;12.25;;;;;;;4.33;64.45;100789.69;10382886;28;20144;-72
2021/11/10 11:20:19;;;;;;;16.25;10.77;;;;;;;4.51;63.41;100789.31;10383696;28;20049;-72
2021/11/10 11:25:23;;;;;;;15.75;11.15;;;;;;;4.41;64.26;100787.81;10382995;28;20498;-71
2021/11/10 11:30:52;;;;;;;15.13;11.43;;;;;;;4.72;63.72;100780.22;10382768;28;20079;-71
2021/11/10 11:35:56;;;;;;;14.27;11.57;;;;;;;4.97;63.47;100779.59;10375776;28;20492;-71
2021/11/10 11:41:01;;;;;;;16.95;13.07;;;;;;;4.72;63.38;100774.13;10383564;28;20046;-71
2021/11/10 11:46:03;;;;;;;22.35;13.75;;;;;;;4.66;63.82;100768.22;10382373;28;20056;-71
2021/11/10 11:51:07;;;;;;;24.23;15.27;;;;;;;4.68;63.63;100767.31;10397328;28;20057;-70
2021/11/10 11:56:12;;;;;;;19.70;13.60;;;;;;;4.61;64.12;100770.94;10382490;28;20631;-71
2021/11/10 12:01:17;;;;;;;18.15;13.82;;;;;;;4.78;63.90;100782.66;10380969;28;20503;-71
2021/11/10 12:06:21;;;;;;;17.40;12.63;;;;;;;5.09;63.63;100770.69;10382520;28;20057;-71
2021/11/10 12:11:22;;;;;;;19.00;13.38;;;;;;;5.23;63.32;100766.00;10382689;28;20064;-71
2021/11/10 12:16:25;;;;;;;17.83;12.18;;;;;;;5.35;63.40;100753.59;10388599;28;20573;-71
2021/11/10 12:21:45;;;;;;;16.58;12.55;;;;;;;5.29;62.64;100747.69;10390412;28;20506;-71
2021/11/10 12:27:14;;;;;;;16.60;12.00;;;;;;;5.36;62.79;100744.94;10389607;28;20164;-71
2021/11/10 12:32:24;;;;;;;17.55;12.45;;;;;;;5.70;62.92;100738.84;10388813;28;20136;-71
2021/11/10 12:37:31;;;;;;;14.32;11.27;;;;;;;5.82;62.41;100736.75;10389215;28;20053;-71
2021/11/10 12:43:02;;;;;;;16.55;11.60;;;;;;;5.77;62.52;100723.06;10388298;28;20056;-72
2021/11/10 12:48:28;;;;;;;13.97;11.03;;;;;;;5.97;62.59;100714.72;10383006;28;20049;-72
2021/11/10 12:53:38;;;;;;;14.93;10.45;;;;;;;6.00;61.86;100705.09;10388465;28;20565;-71
2021/11/10 12:58:40;;;;;;;12.93;10.07;;;;;;;6.15;61.28;100704.66;10387247;28;20148;-71
2021/11/10 13:03:43;;;;;;;14.35;11.27;;;;;;;6.15;61.28;100704.66;10387635;28;20322;-71
2021/11/10 13:09:04;;;;;;;17.45;11.80;;;;;;;6.30;61.90;100699.06;10387683;28;20466;-71
2021/11/10 13:14:15;;;;;;;19.17;11.52;;;;;;;6.42;61.72;100697.81;10386757;28;20049;-71
2021/11/10 13:19:18;;;;;;;14.75;10.30;;;;;;;6.57;61.44;100686.94;10387712;28;20136;-72
2021/11/10 13:24:19;;;;;;;14.95;10.95;;;;;;;6.48;61.42;100681.19;10386676;28;20053;-71
2021/11/10 13:29:23;;;;;;;16.00;10.50;;;;;;;6.54;61.51;100670.59;10386793;28;20175;-72
2021/11/10 13:34:33;;;;;;;13.95;10.20;;;;;;;6.66;61.16;100672.81;10386198;28;20191;-71
2021/11/10 13:39:39;;;;;;;14.30;10.57;;;;;;;6.82;61.00;100682.66;10386499;28;20046;-71
2021/11/10 13:44:41;;;;;;;19.95;12.65;;;;;;;6.83;60.92;100684.38;10385748;28;20140;-71
2021/11/10 13:49:45;;;;;;;15.57;11.15;;;;;;;6.80;60.77;100668.00;10386562;28;20067;-71
2021/11/10 13:54:49;;;;;;;13.02;9.68;;;;;;;6.86;61.00;100670.41;10385148;28;20132;-71
2021/11/10 13:59:53;;;;;;;16.90;10.52;;;;;;;6.72;61.64;100670.84;10385492;28;20486;-71
2021/11/10 14:04:58;;;;;;;15.70;11.68;;;;;;;6.43;62.43;100664.91;10385681;28;20053;-70
2021/11/10 14:10:06;;;;;;;19.10;11.63;;;;;;;6.30;62.74;100665.28;10384270;28;20132;-73
2021/11/10 14:15:22;;;;;;;14.85;10.80;;;;;;;6.21;62.81;100667.25;10385209;28;20548;-73
2021/11/10 14:20:27;;;;;;;15.18;10.55;;;;;;;6.15;62.92;100678.69;10384746;28;20049;-72
2021/11/10 14:25:41;;;;;;;15.38;10.85;;;;;;;6.12;63.01;100677.94;10384494;28;20156;-73
2021/11/10 14:30:51;;;;;;;16.42;11.43;;;;;;;6.10;62.93;100670.16;10384679;28;20478;-70
2021/11/10 14:35:59;;;;;;;20.30;11.35;;;;;;;6.04;63.03;100666.94;10382101;28;20140;-73
2021/11/10 14:41:06;;;;;;;17.83;11.82;;;;;;;6.07;62.84;100679.81;10383533;28;20095;-72
2021/11/10 14:46:10;;;;;;;19.33;12.30;;;;;;;5.95;62.70;100681.03;10383763;28;20424;-72
2021/11/10 14:51:12;;;;;;;18.60;11.52;;;;;;;5.86;63.31;100678.66;10383520;28;20052;-71
2021/11/10 14:56:17;;;;;;;15.02;10.82;;;;;;;5.79;63.20;100694.47;10383155;28;20300;-72
2021/11/10 15:01:19;;;;;;;15.63;10.88;;;;;;;5.78;63.02;100688.44;10383989;28;20049;-72
2021/11/10 15:06:36;;;;;;;18.10;11.60;;;;;;;5.65;62.90;100683.63;10383336;28;20053;-72
2021/11/10 15:11:49;;;;;;;17.50;11.93;;;;;;;5.63;63.32;100688.00;10383288;28;20507;-72
2021/11/10 15:16:50;;;;;;;21.75;12.23;;;;;;;5.55;63.42;100680.44;10383311;28;20815;-72
2021/11/10 15:21:53;;;;;;;20.38;12.88;;;;;;;5.46;63.60;100678.09;10381962;28;20451;-71
2021/11/10 15:26:55;;;;;;;21.95;13.18;;;;;;;5.34;63.77;100663.72;10383073;28;20057;-71
2021/11/10 15:31:56;;;;;;;17.63;11.90;;;;;;;5.28;63.75;100663.03;10382754;28;20160;-71
2021/11/10 15:36:58;;;;;;;22.65;13.40;;;;;;;5.16;63.67;100673.72;10382741;28;20053;-72
2021/11/10 15:42:00;;;;;;;18.85;13.73;;;;;;;4.98;64.23;100666.41;10382563;28;20136;-72
2021/11/10 15:47:09;;;;;;;20.42;13.23;;;;;;;4.76;64.48;100675.63;10383169;28;20140;-72
2021/11/10 15:52:11;;;;;;;20.98;13.75;;;;;;;4.62;65.09;100674.19;10387855;28;20129;-71
2021/11/10 15:57:13;;;;;;;23.42;15.48;;;;;;;4.52;65.37;100679.63;10390540;28;20350;-72
2021/11/10 16:02:16;;;;;;;22.33;14.50;;;;;;;4.43;65.49;100691.03;10390044;28;20050;-72
2021/11/10 16:07:20;;;;;;;20.35;12.45;;;;;;;4.36;65.65;100692.06;10388612;28;20049;-72
2021/11/10 16:12:21;;;;;;;19.67;12.70;;;;;;;4.23;65.76;100700.16;10389260;28;20049;-71
2021/11/10 16:17:23;;;;;;;20.80;15.27;;;;;;;4.14;66.07;100708.97;10389547;28;20120;-72
2021/11/10 16:22:25;;;;;;;31.92;17.80;;;;;;;4.03;66.49;100694.56;10388457;28;20136;-72
2021/11/10 16:27:30;;;;;;;37.53;22.85;;;;;;;3.96;66.49;100686.06;10389050;28;20493;-72
2021/11/10 16:38:04;;;;;;;24.40;14.47;;;;;;;3.79;66.83;100704.47;10371091;28;20131;-72
2021/11/10 16:43:08;;;;;;;20.17;13.02;;;;;;;3.75;66.73;100717.50;10388199;28;20045;-72
2021/11/10 16:48:11;;;;;;;22.42;14.18;;;;;;;3.66;66.73;100728.88;10387910;28;20063;-72
2021/11/10 16:53:12;;;;;;;24.08;15.93;;;;;;;3.56;66.86;100734.25;10387501;28;20049;-71
2021/11/10 16:58:20;;;;;;;32.40;21.92;;;;;;;3.54;66.92;100742.03;10388612;28;20461;-72
2021/11/10 17:03:22;;;;;;;30.73;16.60;;;;;;;3.45;67.05;100739.63;10387804;28;20053;-73
2021/11/10 17:08:24;;;;;;;32.88;21.20;;;;;;;3.42;66.90;100755.19;10385342;28;20045;-72
2021/11/10 17:13:28;;;;;;;27.35;17.73;;;;;;;3.35;67.30;100739.81;10387666;28;20049;-72
2021/11/10 17:18:30;;;;;;;22.40;14.27;;;;;;;3.28;67.30;100746.81;10386172;28;20133;-72
2021/11/10 17:23:32;;;;;;;24.15;15.60;;;;;;;3.21;67.14;100741.78;10387255;28;20056;-72
2021/11/10 17:28:34;;;;;;;19.95;13.27;;;;;;;3.17;67.46;100753.06;10386457;28;20095;-72
2021/11/10 17:33:36;;;;;;;17.63;12.45;;;;;;;3.07;67.30;100759.25;10386342;28;20049;-63
2021/11/10 17:38:44;;;;;;;22.15;11.82;;;;;;;3.05;67.27;100748.91;10385691;28;20425;-63
2021/11/10 17:43:46;;;;;;;19.95;12.90;;;;;;;3.01;67.53;100749.84;10386032;28;20064;-63
2021/11/10 17:48:49;;;;;;;17.30;11.80;;;;;;;2.96;67.47;100754.25;10384648;28;20060;-63
2021/11/10 17:53:51;;;;;;;24.42;15.02;;;;;;;2.88;67.48;100762.13;10381024;28;20049;-63
2021/11/10 17:58:53;;;;;;;21.42;15.40;;;;;;;2.78;67.40;100762.28;10380810;28;20052;-63
2021/11/10 18:03:55;;;;;;;25.15;16.80;;;;;;;2.68;67.32;100752.97;10383330;28;20128;-63
2021/11/10 18:08:57;;;;;;;22.95;14.60;;;;;;;2.60;67.45;100765.97;10380802;28;20502;-63
2021/11/10 18:13:58;;;;;;;19.52;12.93;;;;;;;2.53;67.64;100758.34;10381996;28;20107;-63
2021/11/10 18:19:02;;;;;;;25.92;15.55;;;;;;;2.43;67.76;100762.78;10385426;28;20172;-63
2021/11/10 18:24:04;;;;;;;21.00;13.32;;;;;;;2.33;67.80;100755.19;10384047;28;20223;-63
2021/11/10 18:29:22;;;;;;;22.25;15.23;;;;;;;2.32;67.79;100759.47;10384734;28;20463;-63
2021/11/10 18:34:24;;;;;;;25.27;15.55;;;;;;;2.25;67.95;100757.88;10386101;28;20052;-64
2021/11/10 18:39:27;;;;;;;27.38;16.13;;;;;;;2.22;67.95;100757.91;10385100;28;20156;-63
2021/11/10 18:44:30;;;;;;;23.15;14.55;;;;;;;2.15;68.00;100759.69;10381683;28;20413;-62
2021/11/10 18:49:32;;;;;;;19.80;13.55;;;;;;;2.08;67.80;100746.91;10385222;28;20150;-62
2021/11/10 18:54:35;;;;;;;18.70;12.40;;;;;;;2.05;67.75;100744.38;10383541;28;20851;-63
2021/11/10 18:59:37;;;;;;;24.88;15.88;;;;;;;1.98;67.83;100747.88;10384703;28;20042;-62
2021/11/10 19:04:49;;;;;;;27.83;15.85;;;;;;;1.85;67.87;100735.97;10382739;28;20049;-62
2021/11/10 19:09:56;;;;;;;20.80;13.40;;;;;;;1.82;67.95;100731.75;10382445;28;20063;-62
2021/11/10 19:20:32;;;;;;;18.63;11.52;;;;;;;1.75;67.76;100747.28;10384298;28;20049;-62
2021/11/10 19:25:35;;;;;;;74.70;17.40;;;;;;;1.66;67.61;100752.56;10395942;28;20049;-62
2021/11/10 19:30:41;;;;;;;23.30;14.85;;;;;;;1.46;68.11;100757.06;10397008;28;20138;-62
2021/11/10 19:35:42;;;;;;;22.17;13.63;;;;;;;1.40;68.25;100744.22;10397235;28;20486;-62
2021/11/10 19:40:44;;;;;;;22.13;14.38;;;;;;;1.38;68.23;100745.97;10396950;28;20045;-62
2021/11/10 19:45:46;;;;;;;25.05;15.63;;;;;;;1.36;68.20;100741.66;10395993;28;20052;-62
2021/11/10 19:50:49;;;;;;;27.75;15.48;;;;;;;1.37;68.00;100742.53;10397607;28;20502;-62
2021/11/10 19:55:51;;;;;;;28.67;14.70;;;;;;;1.36;68.06;100743.38;10395512;28;20049;-63
2021/11/10 20:00:53;;;;;;;54.88;16.95;;;;;;;1.25;67.85;100738.34;10391147;28;20415;-62
2021/11/10 20:05:55;;;;;;;41.38;16.23;;;;;;;1.17;67.98;100758.19;10394474;28;20056;-62
2021/11/10 20:10:59;;;;;;;153.82;18.90;;;;;;;1.04;68.34;100763.44;10396998;28;20132;-62
2021/11/10 20:16:01;;;;;;;130.23;16.70;;;;;;;0.92;68.54;100759.25;10393653;28;20057;-62
2021/11/10 20:21:03;;;;;;;325.55;23.63;;;;;;;0.94;68.46;100772.97;10396052;28;20057;-62
2021/11/10 20:26:08;;;;;;;85.07;17.83;;;;;;;0.97;68.60;100766.94;10394528;28;20045;-62
2021/11/10 20:31:14;;;;;;;59.45;15.57;;;;;;;1.00;68.40;100780.63;10396078;28;20364;-62
2021/11/10 20:36:16;;;;;;;247.68;22.50;;;;;;;1.02;68.46;100775.47;10389195;28;20052;-62
2021/11/10 20:41:18;;;;;;;199.07;19.25;;;;;;;1.04;68.46;100781.47;10388401;28;20417;-62
2021/11/10 20:46:19;;;;;;;247.35;22.60;;;;;;;1.03;68.49;100787.50;10389043;28;20053;-62
2021/11/10 20:51:21;;;;;;;261.05;21.13;;;;;;;1.05;68.52;100788.34;10388683;28;20049;-62
2021/11/10 20:56:25;;;;;;;250.57;23.15;;;;;;;1.05;68.47;100784.06;10387763;28;20136;-62
2021/11/10 21:01:27;;;;;;;271.27;21.70;;;;;;;1.02;68.43;100772.88;10389774;28;20046;-62
2021/11/10 21:06:29;;;;;;;384.70;25.80;;;;;;;1.02;68.83;100773.75;10387658;28;20497;-62
2021/11/10 21:11:31;;;;;;;438.30;27.63;;;;;;;1.03;68.53;100767.75;10388344;28;20060;-61
2021/11/10 21:16:33;;;;;;;322.70;21.85;;;;;;;1.01;68.39;100772.06;10388370;28;20092;-61
2021/11/10 21:21:35;;;;;;;308.92;27.35;;;;;;;0.90;68.97;100776.41;10387666;28;20049;-62
2021/11/10 21:26:36;;;;;;;282.83;21.02;;;;;;;0.94;68.94;100782.41;10386622;28;20049;-63
2021/11/10 21:31:39;;;;;;;262.88;30.95;;;;;;;0.86;69.22;100789.31;10387644;28;20445;-63
2021/11/10 21:36:43;;;;;;;435.35;25.13;;;;;;;0.95;69.08;100787.53;10387427;28;20146;-62
2021/11/10 21:41:45;;;;;;;382.98;25.75;;;;;;;0.95;69.20;100787.53;10387222;28;20056;-62
2021/11/10 21:46:54;;;;;;;281.05;20.92;;;;;;;0.96;69.20;100778.94;10385294;28;20057;-63
2021/11/10 21:51:56;;;;;;;418.50;26.88;;;;;;;1.07;68.97;100768.56;10386615;28;20046;-62
2021/11/10 21:56:58;;;;;;;545.67;31.85;;;;;;;1.07;68.64;100766.00;10385590;28;20057;-63
2021/11/10 22:02:00;;;;;;;506.80;24.45;;;;;;;0.84;68.90;100771.31;10386935;28;20059;-62
2021/11/10 22:07:03;;;;;;;284.67;19.08;;;;;;;0.91;69.19;100772.13;10384030;28;20418;-62
2021/11/10 22:12:09;;;;;;;291.02;22.10;;;;;;;1.09;68.89;100767.69;10385752;28;20077;-62
2021/11/10 22:17:11;;;;;;;209.63;19.42;;;;;;;1.11;68.96;100778.84;10385313;28;20340;-62
2021/11/10 22:22:13;;;;;;;335.23;22.20;;;;;;;1.23;68.46;100786.47;10385299;28;20068;-63
2021/11/10 22:27:15;;;;;;;121.07;15.27;;;;;;;1.11;68.90;100780.56;10381228;28;20800;-63
2021/11/10 22:32:16;;;;;;;370.10;20.40;;;;;;;1.20;68.74;100776.19;10384222;28;20046;-63
2021/11/10 22:37:18;;;;;;;90.00;16.98;;;;;;;1.32;68.70;100775.22;10384226;28;20052;-63
2021/11/10 22:42:21;;;;;;;73.47;16.77;;;;;;;1.49;68.52;100777.63;10383961;28;20578;-62
2021/11/10 22:47:23;;;;;;;131.85;19.00;;;;;;;1.62;68.44;100753.47;10386256;28;20060;-63
2021/11/10 22:52:25;;;;;;;274.48;21.35;;;;;;;1.60;68.16;100753.47;10385909;28;20116;-62
2021/11/10 22:57:27;;;;;;;56.08;15.68;;;;;;;1.65;68.23;100755.97;10384487;28;20049;-62
2021/11/10 23:02:28;;;;;;;79.25;17.88;;;;;;;1.72;68.37;100755.06;10381915;28;20052;-62
2021/11/10 23:07:30;;;;;;;136.10;19.02;;;;;;;1.82;68.10;100759.25;10384656;28;20057;-62